首页
METAR-TAF:

METAR-TAF

机场 :

硫磺岛, 日本

纬度: 24-47N, 经度: 141-19E, 海拔: 113米

当前天气观测

该预报发布于44分钟前的11:00 UTC
风速10节,风向东转东南
温度 28°C
湿度 79%
气压 1015 hPa
能见度10公里或以上
少量云层高于2000英尺
多云

METAR: RJAW 181100Z 11010KT 9999 FEW020 BKN/// 28/24 Q1015 RMK 1CU020 A2998 WIND BY EQPT/25

时间: 20:44 (11:44 UTC)


TAF: 丢失

超过4000个机场的气象观测和天气预报(METAR&TAF报告)。

可查询的气象台以黄色和红色小点在地图上表示。

将鼠标移到小点上方,可查看气象台名称。

然后点击查看天气观测和预报。

如需切换地图:点击带黑十字的绿色按钮放大地图;点击带横线的绿色按钮缩小地图;或者点击绿色箭头查看邻近地区的地图。


METAR-TAF: